Time;durP1;ratioP1;P1;durP2;ratioP2;P2;SDS_P1;SDS_P2;PMS_P1;PMS_P2;Temp;Humidity;BMP_temperature;BMP_pressure;BME280_temperature;BME280_humidity;BME280_pressure;Samples;Min_cycle;Max_cycle;Signal;HPM_P1;HPM_P2
2024/04/12 00:13:05;;;;;;;17.20;6.40;;;;;;;8.80;68.22;100087.41;437777;1250;110714;-41
2024/04/12 00:23:12;;;;;;;9.90;6.10;;;;;;;8.79;68.31;100092.27;437756;1250;108568;-41
2024/04/12 00:33:19;;;;;;;13.00;6.20;;;;;;;8.81;68.38;100092.98;437883;1248;97880;-40
2024/04/12 00:43:27;;;;;;;24.40;7.30;;;;;;;8.94;68.39;100093.90;437754;1250;107586;-40
2024/04/12 00:53:32;;;;;;;13.20;7.20;;;;;;;9.17;68.26;100072.64;437777;1247;97871;-41
2024/04/12 01:03:36;;;;;;;13.20;6.50;;;;;;;9.31;68.44;100068.95;437791;1248;110902;-40
2024/04/12 01:13:50;;;;;;;11.30;7.00;;;;;;;9.32;68.32;100062.38;437931;1250;107207;-40
2024/04/12 01:23:54;;;;;;;10.30;7.00;;;;;;;9.23;68.19;100058.02;435364;1250;97905;-41
2024/04/12 01:34:00;;;;;;;11.60;7.30;;;;;;;9.14;68.37;100059.21;435447;1250;107813;-40
2024/04/12 01:44:06;;;;;;;11.00;6.90;;;;;;;9.18;68.39;100057.91;435378;1250;97934;-40
2024/04/12 02:04:21;;;;;;;12.20;8.30;;;;;;;9.15;68.59;100068.03;435283;1250;107885;-43
2024/04/12 02:14:28;;;;;;;11.40;8.40;;;;;;;9.00;68.55;100070.16;435417;1253;97482;-40
2024/04/12 02:24:33;;;;;;;14.50;9.20;;;;;;;8.76;68.77;100068.40;435452;1251;110958;-41
2024/04/12 02:34:37;;;;;;;14.80;8.00;;;;;;;8.64;68.75;100057.43;435082;1254;98381;-40
2024/04/12 02:44:41;;;;;;;16.10;8.70;;;;;;;8.60;68.90;100057.77;435233;1254;96592;-40
2024/04/12 03:04:48;;;;;;;16.30;9.50;;;;;;;8.48;69.48;100068.54;435212;1251;108391;-40
2024/04/12 03:14:54;;;;;;;14.80;10.00;;;;;;;8.30;69.56;100075.75;435360;1250;97474;-42
2024/04/12 03:24:58;;;;;;;13.80;7.90;;;;;;;8.17;69.67;100077.08;435242;1254;108535;-40
2024/04/12 03:35:26;;;;;;;22.60;9.30;;;;;;;8.14;69.80;100085.05;435338;1253;98161;-41
2024/04/12 03:45:30;;;;;;;15.10;9.80;;;;;;;8.06;70.24;100084.19;435313;1254;110239;-41
2024/04/12 03:55:34;;;;;;;22.40;10.80;;;;;;;7.96;70.47;100087.63;435271;1254;98007;-40
2024/04/12 04:05:38;;;;;;;18.40;10.70;;;;;;;7.83;70.65;100082.10;435340;1250;97905;-41
2024/04/12 04:15:49;;;;;;;13.10;9.40;;;;;;;7.87;70.86;100090.60;435334;1254;110668;-40
2024/04/12 04:25:57;;;;;;;15.50;8.80;;;;;;;8.12;71.07;100091.70;435464;1254;107600;-40
2024/04/12 04:46:26;;;;;;;27.90;12.70;;;;;;;8.73;71.48;100094.52;435268;1251;96941;-41
2024/04/12 04:56:32;;;;;;;28.20;14.70;;;;;;;8.98;71.40;100095.84;435411;1254;108450;-40
2024/04/12 05:06:40;;;;;;;30.50;15.10;;;;;;;9.26;71.14;100095.05;435341;1250;97889;-41
2024/04/12 05:16:43;;;;;;;23.30;13.10;;;;;;;9.53;71.11;100090.95;435224;1265;108463;-41
2024/04/12 05:27:01;;;;;;;18.80;13.50;;;;;;;9.74;71.15;100084.27;435387;1250;97922;-41
2024/04/12 05:37:05;;;;;;;45.30;15.30;;;;;;;10.88;71.70;100084.17;435388;1250;110732;-41
2024/04/12 05:57:12;;;;;;;37.10;11.40;;;;;;;14.28;69.79;100072.78;435272;1250;96665;-41
2024/04/12 06:07:18;;;;;;;33.60;10.70;;;;;;;15.46;68.02;100067.23;435191;1250;107698;-41
2024/04/12 06:17:23;;;;;;;21.40;14.00;;;;;;;16.36;65.77;100058.98;435268;1256;96612;-40
2024/04/12 06:37:37;;;;;;;17.70;8.80;;;;;;;17.61;63.49;100058.59;435358;1250;107635;-41
2024/04/12 06:47:48;;;;;;;11.30;7.30;;;;;;;17.88;61.58;100067.27;435486;1256;97883;-41
2024/04/12 06:57:52;;;;;;;18.60;8.00;;;;;;;17.96;60.79;100069.50;435488;1250;109738;-40
2024/04/12 07:07:57;;;;;;;13.70;7.30;;;;;;;18.45;60.08;100069.88;435248;1254;97874;-40
2024/04/12 07:18:02;;;;;;;20.80;6.40;;;;;;;18.81;58.93;100074.16;435488;1250;98299;-40
2024/04/12 07:28:07;;;;;;;13.60;4.70;;;;;;;19.52;57.57;100080.52;435182;1256;111642;-44
2024/04/12 07:38:17;;;;;;;8.50;3.60;;;;;;;19.85;55.56;100093.19;435180;1256;108258;-41
2024/04/12 07:48:27;;;;;;;6.20;3.50;;;;;;;19.76;54.07;100098.48;435169;1254;97922;-40
2024/04/12 07:58:40;;;;;;;6.80;2.80;;;;;;;19.75;52.67;100100.89;435234;1255;111271;-40
2024/04/12 08:08:46;;;;;;;4.80;2.80;;;;;;;20.11;51.88;100094.65;435211;1250;107427;-40
2024/04/12 08:18:54;;;;;;;8.90;2.10;;;;;;;20.37;50.88;100093.84;435368;1253;97913;-40
2024/04/12 08:29:00;;;;;;;5.70;2.80;;;;;;;20.43;49.53;100081.48;435352;1250;110916;-40
2024/04/12 08:39:12;;;;;;;8.30;3.00;;;;;;;20.45;48.83;100074.45;435484;1256;108481;-39
2024/04/12 08:49:21;;;;;;;5.80;2.70;;;;;;;20.80;48.78;100067.17;435330;1251;97510;-40
2024/04/12 08:59:30;;;;;;;10.50;3.10;;;;;;;21.18;47.69;100064.76;435452;1254;110729;-39
2024/04/12 09:09:35;;;;;;;6.80;2.50;;;;;;;21.30;47.10;100057.44;435494;1253;109309;-40
2024/04/12 09:19:41;;;;;;;6.40;2.20;;;;;;;21.45;47.16;100052.46;435436;1255;97877;-41
2024/04/12 09:29:54;;;;;;;4.60;1.90;;;;;;;21.63;46.31;100048.68;435343;1254;111122;-41
2024/04/12 10:42:37;;;;;;;4.80;2.50;;;;;;;21.08;45.85;99987.86;435474;1254;108568;-40
2024/04/12 10:52:43;;;;;;;3.80;2.50;;;;;;;21.10;45.41;99983.29;435434;1250;99249;-39
2024/04/12 11:02:54;;;;;;;56.30;5.40;;;;;;;20.91;45.46;99976.58;435348;1250;108705;-41
2024/04/12 11:13:22;;;;;;;5.20;1.90;;;;;;;20.88;45.37;99971.83;435331;1251;99238;-41
2024/04/12 11:33:58;;;;;;;4.90;2.20;;;;;;;21.05;45.42;99952.66;435063;1254;108917;-40
2024/04/12 11:44:22;;;;;;;7.70;3.60;;;;;;;20.93;45.60;99940.66;435212;1250;98266;-41
2024/04/12 11:54:31;;;;;;;9.20;2.60;;;;;;;20.81;45.54;99922.19;435327;1256;107663;-40
2024/04/12 12:04:36;;;;;;;27.80;4.90;;;;;;;20.84;45.92;99902.57;435432;1254;98844;-40
2024/04/12 12:14:45;;;;;;;12.00;2.90;;;;;;;20.99;45.79;99906.19;435426;1251;112225;-40
2024/04/12 12:24:51;;;;;;;4.70;2.50;;;;;;;20.95;45.73;99899.08;435354;1250;107898;-40
2024/04/12 12:34:57;;;;;;;8.20;2.50;;;;;;;20.78;45.85;99899.77;435364;1254;99724;-40
2024/04/12 12:45:03;;;;;;;10.20;2.60;;;;;;;20.60;46.17;99882.78;435376;1251;108655;-40
2024/04/12 12:55:11;;;;;;;8.10;1.80;;;;;;;20.67;46.32;99867.80;435275;1264;99244;-41
2024/04/12 13:05:17;;;;;;;9.00;3.00;;;;;;;20.75;46.29;99851.30;435292;1257;111267;-41
2024/04/12 13:15:23;;;;;;;7.60;2.10;;;;;;;20.40;46.35;99844.49;435226;1256;108520;-42
2024/04/12 13:25:52;;;;;;;6.70;2.60;;;;;;;20.16;46.83;99831.31;435392;1251;98436;-41
2024/04/12 13:36:00;;;;;;;8.70;2.80;;;;;;;20.39;47.43;99821.56;435413;1256;108627;-41
2024/04/12 13:56:29;;;;;;;9.00;2.70;;;;;;;20.33;47.53;99796.82;435409;1251;112159;-40
2024/04/12 14:06:36;;;;;;;4.60;2.10;;;;;;;20.20;47.87;99791.63;435221;1256;108646;-41
2024/04/12 14:16:42;;;;;;;17.80;2.80;;;;;;;20.39;47.95;99783.46;435293;1256;99259;-40
2024/04/12 14:26:48;;;;;;;9.60;2.50;;;;;;;20.50;47.85;99767.75;435404;1264;109031;-41
2024/04/12 14:36:52;;;;;;;7.60;2.10;;;;;;;20.41;47.91;99753.77;435191;1251;99256;-40
2024/04/12 14:46:59;;;;;;;;;;;;;;;20.20;48.24;99734.80;435339;1254;112975;-41
2024/04/12 14:57:06;;;;;;;7.30;2.50;;;;;;;20.14;48.40;99720.71;435261;1251;108643;-41
2024/04/12 15:48:49;;;;;;;5.40;3.00;;;;;;;19.34;50.16;99695.45;435191;1254;108647;-42
2024/04/12 16:19:41;;;;;;;3.80;2.20;;;;;;;18.67;51.78;99677.23;435267;1251;98609;-41
2024/04/12 16:29:46;;;;;;;7.80;2.60;;;;;;;18.54;52.09;99679.43;435191;1254;112199;-41
2024/04/12 16:39:52;;;;;;;15.00;3.20;;;;;;;18.33;52.56;99676.52;435265;1254;108395;-41
2024/04/12 16:49:58;;;;;;;11.00;3.70;;;;;;;18.08;53.08;99668.58;435310;1251;99231;-41
2024/04/12 17:00:03;;;;;;;25.40;7.60;;;;;;;17.81;53.68;99668.08;435221;1254;107629;-42
2024/04/12 17:10:09;;;;;;;23.00;9.70;;;;;;;17.58;54.39;99662.57;435360;1250;98012;-40
2024/04/12 17:20:19;;;;;;;21.60;8.90;;;;;;;17.37;54.93;99653.27;435358;1251;110969;-40
2024/04/12 17:30:24;;;;;;;20.80;9.30;;;;;;;16.96;55.46;99647.99;435203;1254;108551;-42
2024/04/12 17:40:30;;;;;;;24.70;9.70;;;;;;;16.61;56.35;99642.23;435384;1250;98022;-41
2024/04/12 17:50:39;;;;;;;37.80;9.30;;;;;;;16.25;57.19;99641.65;434647;1254;605317;-41
2024/04/12 18:00:46;;;;;;;22.60;7.00;;;;;;;16.01;57.98;99645.50;435283;1251;99258;-40
2024/04/12 18:10:59;;;;;;;16.50;6.70;;;;;;;15.77;58.84;99643.86;435280;1254;112150;-40
2024/04/12 18:21:06;;;;;;;28.00;15.60;;;;;;;15.37;59.38;99641.71;435200;1251;108584;-41
2024/04/12 18:31:12;;;;;;;18.50;8.30;;;;;;;15.04;60.23;99636.02;435289;1254;99359;-40
2024/04/12 18:52:12;;;;;;;34.00;13.80;;;;;;;14.80;61.27;99633.05;435171;1254;99693;-42
2024/04/12 19:02:21;;;;;;;37.40;14.80;;;;;;;14.65;61.99;99630.58;435215;1254;112107;-40
2024/04/12 19:12:30;;;;;;;40.00;19.70;;;;;;;14.48;62.49;99626.93;435198;1250;108683;-41
2024/04/12 19:22:34;;;;;;;;;;;;;;;14.34;62.95;99624.72;435342;1254;98048;-40
2024/04/12 19:32:39;;;;;;;39.90;24.90;;;;;;;14.17;63.41;99621.80;435319;1250;107687;-41
2024/04/12 19:42:45;;;;;;;46.40;23.40;;;;;;;14.06;63.61;99610.73;435197;1254;99227;-40
2024/04/12 19:52:50;;;;;;;42.70;23.30;;;;;;;13.98;63.93;99601.29;435390;1253;112258;-42
2024/04/12 20:03:01;;;;;;;42.20;23.60;;;;;;;13.96;64.49;99600.73;435255;1254;108793;-42
2024/04/12 20:13:07;;;;;;;39.00;23.30;;;;;;;13.72;64.77;99598.59;435350;1250;97997;-41
2024/04/12 20:23:13;;;;;;;38.20;21.00;;;;;;;13.64;65.22;99595.34;435382;1250;108909;-41
2024/04/12 20:33:24;;;;;;;25.80;16.30;;;;;;;13.64;65.57;99593.46;435164;1254;99266;-41
2024/04/12 20:43:33;;;;;;;21.70;13.10;;;;;;;13.68;65.85;99597.69;435240;1250;112146;-42
2024/04/12 20:53:37;;;;;;;;;;;;;;;13.67;65.83;99594.84;435215;1255;109047;-39
2024/04/12 21:03:42;;;;;;;17.00;10.10;;;;;;;13.62;65.85;99593.01;435170;1250;99621;-42
2024/04/12 21:13:49;;;;;;;14.50;9.60;;;;;;;13.54;65.70;99591.12;435262;1254;107679;-41
2024/04/12 21:23:59;;;;;;;18.40;8.90;;;;;;;13.55;65.86;99580.80;435296;1251;99238;-40
2024/04/12 21:34:04;;;;;;;16.40;8.80;;;;;;;13.62;65.90;99582.58;435309;1254;112389;-41
2024/04/12 21:44:09;;;;;;;17.00;9.20;;;;;;;13.65;66.17;99577.92;435268;1254;108752;-40
2024/04/12 21:54:14;;;;;;;19.00;10.50;;;;;;;13.56;66.10;99574.77;435286;1250;99237;-41
2024/04/12 22:04:21;;;;;;;18.00;9.90;;;;;;;13.40;66.23;99571.55;435237;1254;108310;-41
2024/04/12 22:14:26;;;;;;;21.50;10.80;;;;;;;13.21;66.19;99566.39;435418;1250;99272;-40
2024/04/12 22:24:31;;;;;;;15.70;8.80;;;;;;;13.08;66.45;99560.86;435275;1254;111991;-41
2024/04/12 22:34:36;;;;;;;21.80;10.50;;;;;;;13.03;66.72;99555.91;435343;1250;108506;-42
2024/04/12 22:44:42;;;;;;;15.90;10.80;;;;;;;12.97;66.90;99553.80;435391;1251;99221;-41
2024/04/12 22:54:47;;;;;;;13.10;9.40;;;;;;;12.84;67.06;99544.52;435342;1254;108715;-40
2024/04/12 23:04:52;;;;;;;22.10;9.90;;;;;;;12.82;67.14;99535.94;435365;1254;99714;-40
2024/04/12 23:14:57;;;;;;;11.80;8.50;;;;;;;12.87;67.34;99528.89;435275;1254;112439;-41
2024/04/12 23:25:02;;;;;;;17.10;10.70;;;;;;;12.84;67.58;99522.23;435416;1254;108988;-42
2024/04/12 23:35:11;;;;;;;12.80;8.90;;;;;;;12.70;67.93;99518.63;435210;1251;98031;-42
2024/04/12 23:45:16;;;;;;;15.60;9.00;;;;;;;12.63;68.21;99517.25;435424;1254;107441;-41
2024/04/12 23:55:21;;;;;;;19.50;9.60;;;;;;;12.59;68.21;99516.27;435376;1255;99221;-42
